Time;durP1;ratioP1;P1;durP2;ratioP2;P2;SDS_P1;SDS_P2;PMS_P1;PMS_P2;Temp;Humidity;BMP_temperature;BMP_pressure;BME280_temperature;BME280_humidity;BME280_pressure;Samples;Min_cycle;Max_cycle;Signal;HPM_P1;HPM_P2
2022/07/02 00:01:37;;;;;;;6.65;3.80;;;;;;;;;;5021148;28;20492;-79
2022/07/02 00:04:04;;;;;;;5.63;3.40;;;;;;;;;;5034177;28;20473;-79
2022/07/02 00:06:30;;;;;;;15.43;5.78;;;;;;;;;;5033992;28;20052;-79
2022/07/02 00:08:57;;;;;;;4.25;3.25;;;;;;;;;;5016888;28;20077;-79
2022/07/02 00:11:25;;;;;;;8.48;4.03;;;;;;;;;;5040060;28;20045;-80
2022/07/02 00:13:51;;;;;;;8.90;4.15;;;;;;;;;;5053498;28;20430;-80
2022/07/02 00:16:17;;;;;;;6.70;3.83;;;;;;;;;;5053448;28;20051;-80
2022/07/02 00:18:44;;;;;;;13.00;4.00;;;;;;;;;;5053537;28;20112;-80
2022/07/02 00:21:10;;;;;;;4.57;3.80;;;;;;;;;;5040541;28;20610;-80
2022/07/02 00:23:36;;;;;;;6.75;3.70;;;;;;;;;;5016299;28;20519;-80
2022/07/02 00:26:12;;;;;;;5.50;3.85;;;;;;;;;;5033730;28;20038;-80
2022/07/02 00:28:41;;;;;;;9.10;4.30;;;;;;;;;;5016050;28;20042;-80
2022/07/02 00:31:07;;;;;;;;;;;;;;;;;;5034377;28;20033;-80
2022/07/02 00:33:37;;;;;;;14.85;5.07;;;;;;;;;;5033754;28;20466;-80
2022/07/02 00:36:04;;;;;;;8.02;4.20;;;;;;;;;;5016666;28;20045;-80
2022/07/02 00:38:30;;;;;;;7.25;3.53;;;;;;;;;;5033669;28;20067;-80
2022/07/02 00:40:58;;;;;;;4.72;4.05;;;;;;;;;;5033903;28;20041;-80
2022/07/02 00:43:24;;;;;;;6.93;4.03;;;;;;;;;;5033875;28;20045;-79
2022/07/02 00:45:51;;;;;;;8.27;4.50;;;;;;;;;;5033821;28;20439;-80
2022/07/02 00:48:17;;;;;;;10.52;5.05;;;;;;;;;;5033746;28;20072;-80
2022/07/02 00:50:43;;;;;;;7.63;4.35;;;;;;;;;;5033758;28;20132;-79
2022/07/02 00:53:09;;;;;;;7.55;3.80;;;;;;;;;;5033714;28;20061;-79
2022/07/02 00:55:35;;;;;;;7.40;4.13;;;;;;;;;;5052926;28;20049;-79
2022/07/02 00:58:01;;;;;;;5.30;3.58;;;;;;;;;;5052711;28;20534;-80
2022/07/02 01:00:27;;;;;;;5.82;3.97;;;;;;;;;;5026777;28;20092;-80
2022/07/02 01:02:56;;;;;;;4.72;3.42;;;;;;;;;;5033450;28;20053;-80
2022/07/02 01:05:22;;;;;;;;;;;;;;;;;;5033715;28;20069;-80
2022/07/02 01:10:41;;;;;;;5.55;4.38;;;;;;;;;;5033672;28;20059;-80
2022/07/02 01:13:09;;;;;;;6.55;4.15;;;;;;;;;;5052735;28;20082;-81
2022/07/02 01:15:35;;;;;;;7.80;4.20;;;;;;;;;;5052501;28;20140;-78
2022/07/02 01:18:03;;;;;;;11.45;4.78;;;;;;;;;;5039878;28;20053;-78
2022/07/02 01:20:29;;;;;;;7.82;3.97;;;;;;;;;;5052722;28;20158;-78
2022/07/02 01:22:55;;;;;;;4.70;3.80;;;;;;;;;;5044077;28;20053;-79
2022/07/02 01:25:22;;;;;;;6.30;4.07;;;;;;;;;;5035637;28;20042;-79
2022/07/02 01:27:48;;;;;;;9.30;4.90;;;;;;;;;;5037312;28;20188;-79
2022/07/02 01:30:14;;;;;;;6.88;4.20;;;;;;;;;;5035970;28;20045;-79
2022/07/02 01:32:40;;;;;;;6.78;4.75;;;;;;;;;;5033287;28;20048;-79
2022/07/02 01:35:10;;;;;;;10.48;4.47;;;;;;;;;;5033357;28;20121;-79
2022/07/02 01:37:37;;;;;;;6.55;4.43;;;;;;;;;;5033357;28;20046;-79
2022/07/02 01:40:04;;;;;;;8.43;4.60;;;;;;;;;;5033288;28;20038;-79
2022/07/02 01:42:30;;;;;;;8.07;4.93;;;;;;;;;;5033230;28;20048;-79
2022/07/02 01:44:56;;;;;;;8.43;4.88;;;;;;;;;;5032847;28;20048;-79
2022/07/02 01:47:22;;;;;;;10.57;5.57;;;;;;;;;;5033176;28;20124;-79
2022/07/02 01:49:48;;;;;;;7.55;5.00;;;;;;;;;;5032985;28;20393;-79
2022/07/02 01:52:15;;;;;;;11.25;5.75;;;;;;;;;;5033252;28;20041;-79
2022/07/02 01:54:42;;;;;;;6.93;4.65;;;;;;;;;;5032876;28;20554;-79
2022/07/02 01:57:08;;;;;;;10.05;5.10;;;;;;;;;;5033140;28;20103;-79
2022/07/02 01:59:34;;;;;;;6.82;5.25;;;;;;;;;;5015200;28;20111;-79
2022/07/02 02:02:01;;;;;;;7.35;4.95;;;;;;;;;;5033349;28;20052;-79
2022/07/02 02:04:27;;;;;;;6.10;4.85;;;;;;;;;;5046215;28;20369;-79
2022/07/02 02:06:53;;;;;;;11.90;5.97;;;;;;;;;;5052293;28;20079;-79
2022/07/02 02:09:19;;;;;;;9.07;5.45;;;;;;;;;;5052264;28;20053;-79
2022/07/02 02:11:45;;;;;;;7.45;5.07;;;;;;;;;;5053985;28;20053;-79
2022/07/02 02:14:11;;;;;;;8.80;5.78;;;;;;;;;;5037805;28;20064;-78
2022/07/02 02:16:38;;;;;;;7.60;5.80;;;;;;;;;;5055973;28;20048;-78
2022/07/02 02:19:04;;;;;;;10.13;5.78;;;;;;;;;;5038190;28;20045;-76
2022/07/02 02:21:31;;;;;;;10.13;6.57;;;;;;;;;;5055574;28;20400;-76
2022/07/02 02:23:58;;;;;;;9.77;5.40;;;;;;;;;;5055699;28;20095;-74
2022/07/02 02:26:24;;;;;;;12.18;6.15;;;;;;;;;;5055519;28;20051;-77
2022/07/02 02:28:50;;;;;;;8.55;5.13;;;;;;;;;;5054517;28;20088;-77
2022/07/02 02:31:16;;;;;;;8.77;5.82;;;;;;;;;;5037441;28;20052;-77
2022/07/02 02:33:42;;;;;;;8.15;5.95;;;;;;;;;;5055238;28;20122;-78
2022/07/02 02:36:09;;;;;;;9.23;5.70;;;;;;;;;;5055715;28;20155;-78
2022/07/02 02:38:36;;;;;;;14.27;6.88;;;;;;;;;;5039061;28;20408;-80
2022/07/02 02:41:09;;;;;;;11.38;5.88;;;;;;;;;;5018300;28;20053;-80
2022/07/02 02:43:36;;;;;;;10.68;5.72;;;;;;;;;;5018352;28;20132;-80
2022/07/02 02:46:02;;;;;;;10.63;6.38;;;;;;;;;;5036170;28;20045;-79
2022/07/02 02:48:29;;;;;;;7.65;6.18;;;;;;;;;;5036143;28;20048;-79
2022/07/02 02:50:55;;;;;;;10.18;6.68;;;;;;;;;;5018369;28;20052;-79
2022/07/02 02:53:21;;;;;;;7.05;6.35;;;;;;;;;;5036054;28;20081;-80
2022/07/02 02:55:47;;;;;;;11.40;6.40;;;;;;;;;;5035984;28;20057;-78
2022/07/02 02:58:13;;;;;;;10.65;6.40;;;;;;;;;;5035998;28;20041;-77
2022/07/02 03:00:40;;;;;;;9.73;6.63;;;;;;;;;;5035972;28;20049;-78
2022/07/02 03:03:06;;;;;;;24.17;8.40;;;;;;;;;;5035809;28;20042;-80
2022/07/02 03:05:32;;;;;;;12.13;6.30;;;;;;;;;;5035698;28;20518;-77
2022/07/02 03:07:58;;;;;;;15.35;7.22;;;;;;;;;;5035502;28;20049;-77
2022/07/02 03:10:24;;;;;;;15.90;7.55;;;;;;;;;;5035293;28;20042;-79
2022/07/02 03:12:50;;;;;;;11.77;6.20;;;;;;;;;;5035553;28;20053;-79
2022/07/02 03:15:16;;;;;;;15.18;7.18;;;;;;;;;;5034336;28;20045;-79
2022/07/02 03:17:42;;;;;;;11.50;7.10;;;;;;;;;;5035470;28;20504;-80
2022/07/02 03:20:08;;;;;;;12.55;7.25;;;;;;;;;;5035508;28;20053;-80
2022/07/02 03:22:34;;;;;;;14.30;6.57;;;;;;;;;;5034605;28;20041;-79
2022/07/02 03:25:00;;;;;;;12.35;7.20;;;;;;;;;;5035181;28;20060;-78
2022/07/02 03:27:27;;;;;;;19.27;7.57;;;;;;;;;;5035428;28;20049;-78
2022/07/02 03:29:53;;;;;;;14.75;7.30;;;;;;;;;;5035484;28;20041;-77
2022/07/02 03:32:20;;;;;;;11.15;6.50;;;;;;;;;;5034971;28;20569;-78
2022/07/02 03:34:46;;;;;;;9.77;6.53;;;;;;;;;;5017131;28;20081;-78
2022/07/02 03:37:12;;;;;;;8.43;6.70;;;;;;;;;;5035029;28;20056;-77
2022/07/02 03:39:38;;;;;;;14.48;7.13;;;;;;;;;;5034847;28;20038;-78
2022/07/02 03:42:04;;;;;;;8.43;6.32;;;;;;;;;;5035345;28;20121;-78
2022/07/02 03:44:30;;;;;;;10.68;6.63;;;;;;;;;;5034900;28;20048;-78
2022/07/02 03:46:56;;;;;;;18.98;8.13;;;;;;;;;;5016932;28;20049;-78
2022/07/02 03:49:22;;;;;;;15.65;7.35;;;;;;;;;;5017332;28;20133;-78
2022/07/02 03:51:48;;;;;;;25.55;10.00;;;;;;;;;;5034651;28;20408;-78
2022/07/02 03:54:14;;;;;;;16.63;7.82;;;;;;;;;;5034668;28;20401;-78
2022/07/02 03:56:40;;;;;;;15.27;7.53;;;;;;;;;;5013572;28;20054;-78
2022/07/02 03:59:06;;;;;;;8.85;5.80;;;;;;;;;;5013449;28;20092;-78
2022/07/02 04:01:32;;;;;;;20.55;9.00;;;;;;;;;;5014737;28;20492;-78
2022/07/02 04:03:58;;;;;;;21.73;8.25;;;;;;;;;;5014992;28;20405;-78
2022/07/02 04:06:24;;;;;;;10.98;6.50;;;;;;;;;;5014858;28;20049;-78
2022/07/02 04:08:50;;;;;;;19.35;8.15;;;;;;;;;;5014382;28;20038;-78
2022/07/02 04:11:17;;;;;;;36.40;11.45;;;;;;;;;;5013565;28;20050;-78
2022/07/02 04:13:46;;;;;;;9.68;6.50;;;;;;;;;;5014898;28;20054;-78
2022/07/02 04:16:12;;;;;;;31.67;11.85;;;;;;;;;;5022675;28;20493;-78
2022/07/02 04:18:38;;;;;;;15.93;7.38;;;;;;;;;;5033367;28;20045;-77
2022/07/02 04:21:04;;;;;;;9.45;6.68;;;;;;;;;;5033440;28;20448;-78
2022/07/02 04:23:30;;;;;;;12.50;7.20;;;;;;;;;;5031852;28;20045;-78
2022/07/02 04:25:56;;;;;;;35.20;12.23;;;;;;;;;;5033281;28;20048;-78
2022/07/02 04:28:23;;;;;;;11.27;6.97;;;;;;;;;;5033465;28;20056;-78
2022/07/02 04:30:49;;;;;;;18.05;7.85;;;;;;;;;;5033315;28;20470;-79
2022/07/02 04:33:15;;;;;;;7.68;6.13;;;;;;;;;;5033521;28;20041;-78
2022/07/02 04:35:41;;;;;;;12.15;7.05;;;;;;;;;;5031946;28;20061;-78
2022/07/02 04:38:07;;;;;;;26.75;8.85;;;;;;;;;;5033005;28;20049;-78
2022/07/02 04:40:33;;;;;;;14.63;7.30;;;;;;;;;;5033397;28;20049;-79
2022/07/02 04:42:59;;;;;;;15.90;7.63;;;;;;;;;;5014407;28;20049;-79
2022/07/02 04:45:25;;;;;;;11.25;7.07;;;;;;;;;;5025617;28;20064;-79
2022/07/02 04:47:51;;;;;;;9.30;6.43;;;;;;;;;;5034008;28;20037;-78
2022/07/02 04:50:17;;;;;;;9.77;6.68;;;;;;;;;;5024715;28;20125;-79
2022/07/02 04:52:48;;;;;;;9.85;6.72;;;;;;;;;;5018561;28;20085;-78
2022/07/02 04:55:14;;;;;;;10.85;6.65;;;;;;;;;;5022876;28;20049;-78
2022/07/02 04:57:40;;;;;;;11.40;7.15;;;;;;;;;;5033987;28;20046;-78
2022/07/02 05:00:06;;;;;;;11.60;6.93;;;;;;;;;;5033795;28;20116;-78
2022/07/02 05:02:32;;;;;;;12.25;6.80;;;;;;;;;;5033769;28;20037;-78
2022/07/02 05:04:58;;;;;;;12.77;7.57;;;;;;;;;;5038911;28;20506;-78
2022/07/02 05:07:25;;;;;;;9.27;6.82;;;;;;;;;;5053143;28;20124;-78
2022/07/02 05:09:51;;;;;;;13.52;7.72;;;;;;;;;;5053173;28;20401;-79
2022/07/02 05:12:17;;;;;;;10.57;6.95;;;;;;;;;;5034871;28;20102;-79
2022/07/02 05:14:43;;;;;;;13.85;7.78;;;;;;;;;;5052717;28;20041;-77
2022/07/02 05:17:09;;;;;;;10.85;7.20;;;;;;;;;;5052671;28;20052;-77
2022/07/02 05:19:35;;;;;;;8.32;6.78;;;;;;;;;;5052386;28;20041;-78
2022/07/02 05:22:02;;;;;;;9.30;7.25;;;;;;;;;;5034783;28;20049;-77
2022/07/02 05:24:28;;;;;;;13.73;7.53;;;;;;;;;;5052702;28;20071;-77
2022/07/02 05:26:54;;;;;;;22.85;10.38;;;;;;;;;;5052827;28;20077;-77
2022/07/02 05:29:20;;;;;;;10.05;6.68;;;;;;;;;;5052746;28;20045;-76
2022/07/02 05:31:46;;;;;;;13.20;7.05;;;;;;;;;;5052371;28;20124;-76
2022/07/02 05:34:13;;;;;;;10.48;7.45;;;;;;;;;;5052134;28;20465;-77
2022/07/02 05:36:39;;;;;;;12.38;7.45;;;;;;;;;;5034872;28;20266;-76
2022/07/02 05:39:05;;;;;;;10.35;7.30;;;;;;;;;;5052670;28;20041;-76
2022/07/02 05:41:31;;;;;;;8.93;7.00;;;;;;;;;;5035015;28;20041;-77
2022/07/02 05:43:57;;;;;;;13.25;8.20;;;;;;;;;;5052413;28;20044;-78
2022/07/02 05:46:31;;;;;;;65.72;29.05;;;;;;;;;;5038791;28;20041;-78
2022/07/02 05:48:57;;;;;;;21.20;9.77;;;;;;;;;;5036871;28;20496;-77
2022/07/02 05:51:23;;;;;;;56.58;16.77;;;;;;;;;;5037110;28;20041;-77
2022/07/02 05:53:49;;;;;;;41.45;11.85;;;;;;;;;;5037214;28;20622;-74
2022/07/02 05:56:15;;;;;;;25.88;12.13;;;;;;;;;;5036990;28;20136;-72
2022/07/02 05:58:41;;;;;;;14.35;6.22;;;;;;;;;;5037036;28;20402;-75
2022/07/02 06:01:07;;;;;;;8.07;5.47;;;;;;;;;;5036811;28;20052;-72
2022/07/02 06:03:33;;;;;;;15.20;6.57;;;;;;;;;;5036842;28;20048;-73
2022/07/02 06:08:44;;;;;;;5.18;4.15;;;;;;;;;;5036907;28;20572;-73
2022/07/02 06:11:11;;;;;;;7.68;4.93;;;;;;;;;;5037034;28;20134;-71
2022/07/02 06:13:37;;;;;;;7.35;3.95;;;;;;;;;;5036902;28;20049;-72
2022/07/02 06:16:03;;;;;;;8.88;4.38;;;;;;;;;;5037151;28;20129;-71
2022/07/02 06:18:29;;;;;;;15.55;6.10;;;;;;;;;;5036865;28;20136;-71
2022/07/02 06:20:55;;;;;;;7.97;4.43;;;;;;;;;;5037240;28;20123;-71
2022/07/02 06:23:21;;;;;;;12.52;4.80;;;;;;;;;;5037262;28;20052;-71
2022/07/02 06:25:48;;;;;;;16.00;5.28;;;;;;;;;;5037034;28;20051;-72
2022/07/02 06:28:14;;;;;;;7.22;4.03;;;;;;;;;;5037239;28;20050;-72
2022/07/02 06:30:40;;;;;;;8.07;4.13;;;;;;;;;;5018987;28;20045;-73
2022/07/02 06:33:06;;;;;;;7.10;3.70;;;;;;;;;;5036566;28;20400;-75
2022/07/02 06:35:32;;;;;;;6.47;3.80;;;;;;;;;;5037107;28;20042;-72
2022/07/02 06:37:58;;;;;;;6.90;3.42;;;;;;;;;;5036416;28;20048;-71
2022/07/02 06:40:24;;;;;;;5.43;3.80;;;;;;;;;;5047460;28;20183;-72
2022/07/02 06:42:50;;;;;;;7.50;4.13;;;;;;;;;;5037544;28;20404;-72
2022/07/02 06:45:16;;;;;;;10.90;4.30;;;;;;;;;;5055828;28;20049;-72
2022/07/02 06:47:43;;;;;;;6.18;3.60;;;;;;;;;;5055401;28;20037;-70
2022/07/02 06:50:09;;;;;;;8.25;3.53;;;;;;;;;;5055674;28;20036;-70
2022/07/02 06:52:36;;;;;;;8.43;3.88;;;;;;;;;;5056056;28;20045;-71
2022/07/02 06:55:02;;;;;;;9.18;3.38;;;;;;;;;;5055480;28;20049;-70
2022/07/02 06:57:28;;;;;;;17.88;4.85;;;;;;;;;;5054666;28;20424;-70
2022/07/02 06:59:54;;;;;;;5.95;3.20;;;;;;;;;;5055636;28;20041;-71
2022/07/02 07:02:21;;;;;;;5.47;3.55;;;;;;;;;;5055203;28;20482;-71
2022/07/02 07:04:47;;;;;;;6.47;2.90;;;;;;;;;;5037927;28;20049;-72
2022/07/02 07:07:13;;;;;;;5.82;3.15;;;;;;;;;;5054869;28;20483;-72
2022/07/02 07:09:39;;;;;;;5.25;2.85;;;;;;;;;;5037518;28;20041;-71
2022/07/02 07:12:06;;;;;;;18.33;6.45;;;;;;;;;;5036870;28;20084;-74
2022/07/02 07:14:32;;;;;;;6.60;2.70;;;;;;;;;;5020571;28;20048;-72
2022/07/02 07:16:58;;;;;;;6.47;2.50;;;;;;;;;;5054903;28;20048;-71
2022/07/02 07:19:25;;;;;;;4.35;2.58;;;;;;;;;;5046896;28;20045;-71
2022/07/02 07:21:51;;;;;;;5.53;2.10;;;;;;;;;;5034904;28;20083;-72
2022/07/02 07:24:17;;;;;;;3.70;2.45;;;;;;;;;;5035692;28;20056;-72
2022/07/02 07:26:43;;;;;;;11.23;2.70;;;;;;;;;;5035050;28;20042;-71
2022/07/02 07:29:09;;;;;;;5.15;2.30;;;;;;;;;;5040890;28;20052;-71
2022/07/02 07:31:36;;;;;;;19.30;4.45;;;;;;;;;;5046878;28;20124;-70
2022/07/02 07:34:03;;;;;;;3.78;1.80;;;;;;;;;;5068920;28;20055;-69
2022/07/02 07:36:29;;;;;;;3.72;1.45;;;;;;;;;;5063695;28;20049;-71
2022/07/02 07:38:55;;;;;;;6.05;1.75;;;;;;;;;;5043852;28;20041;-71
2022/07/02 07:41:22;;;;;;;2.40;1.35;;;;;;;;;;5055260;28;20187;-70
2022/07/02 07:43:49;;;;;;;5.30;1.70;;;;;;;;;;5046845;28;20049;-70
2022/07/02 07:46:15;;;;;;;9.52;2.95;;;;;;;;;;5058634;28;20045;-71
2022/07/02 07:48:41;;;;;;;4.57;1.58;;;;;;;;;;5058754;28;20048;-70
2022/07/02 07:51:07;;;;;;;4.10;1.10;;;;;;;;;;5042525;28;20068;-71
2022/07/02 07:53:33;;;;;;;5.65;1.10;;;;;;;;;;5060811;28;20051;-70
2022/07/02 07:56:00;;;;;;;8.07;2.13;;;;;;;;;;5058937;28;20092;-71
2022/07/02 07:58:26;;;;;;;2.97;1.17;;;;;;;;;;5060149;28;20052;-69
2022/07/02 08:00:52;;;;;;;4.00;1.20;;;;;;;;;;5059416;28;20041;-71
2022/07/02 08:03:19;;;;;;;6.93;1.55;;;;;;;;;;5059888;28;20056;-69
2022/07/02 08:05:53;;;;;;;13.13;3.50;;;;;;;;;;5041546;28;20052;-70
2022/07/02 08:08:20;;;;;;;2.00;0.80;;;;;;;;;;5064306;28;20053;-70
2022/07/02 08:10:46;;;;;;;2.00;0.90;;;;;;;;;;5064513;28;20041;-70
2022/07/02 08:13:12;;;;;;;2.60;1.00;;;;;;;;;;5062611;28;20048;-71
2022/07/02 08:15:38;;;;;;;4.40;1.27;;;;;;;;;;5044762;28;20086;-70
2022/07/02 08:18:04;;;;;;;1.98;0.90;;;;;;;;;;5029432;28;20057;-71
2022/07/02 08:20:30;;;;;;;2.72;1.02;;;;;;;;;;5028418;28;20092;-71
2022/07/02 08:22:56;;;;;;;4.63;1.20;;;;;;;;;;5042829;28;20076;-69
2022/07/02 08:25:22;;;;;;;6.25;1.50;;;;;;;;;;5039475;28;20103;-70
2022/07/02 08:27:48;;;;;;;3.20;1.30;;;;;;;;;;5045985;28;20044;-69
2022/07/02 08:30:14;;;;;;;2.42;1.30;;;;;;;;;;5040578;28;20041;-71
2022/07/02 08:32:40;;;;;;;3.75;1.52;;;;;;;;;;5042951;28;20053;-71
2022/07/02 08:35:07;;;;;;;2.67;1.15;;;;;;;;;;5040847;28;20523;-70
2022/07/02 08:37:33;;;;;;;10.10;2.70;;;;;;;;;;5039225;28;20045;-70
2022/07/02 08:39:59;;;;;;;3.63;1.00;;;;;;;;;;5042382;28;20087;-72
2022/07/02 08:42:25;;;;;;;10.13;2.30;;;;;;;;;;5044923;28;20042;-70
2022/07/02 08:44:52;;;;;;;2.92;1.20;;;;;;;;;;5047125;28;20049;-69
2022/07/02 08:47:19;;;;;;;9.02;1.80;;;;;;;;;;5042379;28;20040;-69
2022/07/02 08:49:46;;;;;;;3.33;1.00;;;;;;;;;;5042357;28;20048;-70
2022/07/02 08:52:14;;;;;;;11.55;2.92;;;;;;;;;;5058591;28;20080;-71
2022/07/02 08:54:40;;;;;;;4.80;1.67;;;;;;;;;;5058259;28;20053;-71
2022/07/02 08:57:08;;;;;;;2.03;0.98;;;;;;;;;;5056921;28;20041;-70
2022/07/02 08:59:34;;;;;;;2.92;1.17;;;;;;;;;;5026842;28;20103;-70
2022/07/02 09:02:01;;;;;;;7.40;2.85;;;;;;;;;;5058058;28;20053;-69
2022/07/02 09:04:27;;;;;;;7.10;1.90;;;;;;;;;;5040891;28;20049;-72
2022/07/02 09:06:59;;;;;;;4.18;1.38;;;;;;;;;;5051418;28;20776;-71
2022/07/02 09:09:26;;;;;;;5.97;1.63;;;;;;;;;;5039917;28;20187;-71
2022/07/02 09:11:52;;;;;;;12.52;3.72;;;;;;;;;;5056791;28;20120;-72
2022/07/02 09:14:19;;;;;;;8.90;3.55;;;;;;;;;;5038024;28;20060;-71
2022/07/02 09:16:46;;;;;;;7.90;2.80;;;;;;;;;;5013086;28;20049;-70
2022/07/02 09:19:12;;;;;;;4.13;1.45;;;;;;;;;;5036280;28;20113;-69
2022/07/02 09:21:47;;;;;;;2.25;0.90;;;;;;;;;;5039074;28;20044;-71
2022/07/02 09:24:14;;;;;;;1.50;0.82;;;;;;;;;;5040794;28;20056;-70
2022/07/02 09:26:40;;;;;;;5.20;1.25;;;;;;;;;;5048463;28;20096;-70
2022/07/02 09:29:06;;;;;;;6.95;1.58;;;;;;;;;;5043989;28;20451;-70
2022/07/02 09:31:33;;;;;;;3.58;0.95;;;;;;;;;;5023542;28;20057;-71
2022/07/02 09:33:59;;;;;;;1.88;0.88;;;;;;;;;;5048444;28;20045;-71
2022/07/02 09:36:26;;;;;;;8.75;1.30;;;;;;;;;;5041667;28;20131;-71
2022/07/02 09:38:53;;;;;;;3.00;1.00;;;;;;;;;;5043657;28;20047;-70
2022/07/02 09:41:26;;;;;;;3.15;0.90;;;;;;;;;;5045084;28;20122;-72
2022/07/02 09:44:03;;;;;;;5.50;1.20;;;;;;;;;;5050541;28;20045;-71
2022/07/02 09:46:29;;;;;;;6.82;2.00;;;;;;;;;;5061567;28;20056;-71
2022/07/02 09:49:06;;;;;;;6.05;2.05;;;;;;;;;;5042262;28;20049;-72
2022/07/02 09:51:32;;;;;;;4.13;1.35;;;;;;;;;;5061061;28;20041;-71
2022/07/02 09:53:58;;;;;;;4.57;1.30;;;;;;;;;;5039413;28;20556;-72
2022/07/02 09:56:24;;;;;;;4.55;1.00;;;;;;;;;;5041020;28;20073;-70
2022/07/02 09:58:51;;;;;;;2.95;1.10;;;;;;;;;;5039875;28;20120;-70
2022/07/02 10:01:21;;;;;;;1.60;0.88;;;;;;;;;;5025098;28;20045;-71
2022/07/02 10:03:52;;;;;;;1.85;0.75;;;;;;;;;;5031593;28;20052;-72
2022/07/02 10:06:19;;;;;;;5.75;1.27;;;;;;;;;;5041376;28;20044;-72
2022/07/02 10:08:45;;;;;;;4.72;1.48;;;;;;;;;;5044160;28;20037;-72
2022/07/02 10:11:12;;;;;;;6.18;2.20;;;;;;;;;;5022557;28;20041;-70
2022/07/02 10:13:39;;;;;;;3.85;1.10;;;;;;;;;;5042431;28;20038;-70
2022/07/02 10:16:08;;;;;;;4.25;1.42;;;;;;;;;;5055741;28;20047;-68
2022/07/02 10:18:35;;;;;;;2.53;1.17;;;;;;;;;;5048054;28;20043;-72
2022/07/02 10:21:03;;;;;;;7.90;2.35;;;;;;;;;;5052885;28;20087;-73
2022/07/02 10:23:30;;;;;;;3.15;1.00;;;;;;;;;;5058826;28;20503;-72
2022/07/02 10:25:57;;;;;;;10.00;2.15;;;;;;;;;;5041138;28;20053;-73
2022/07/02 10:28:24;;;;;;;3.90;1.00;;;;;;;;;;5021441;28;20131;-72
2022/07/02 10:30:50;;;;;;;1.83;1.00;;;;;;;;;;5047824;28;20049;-72
2022/07/02 10:33:16;;;;;;;5.88;1.58;;;;;;;;;;5045642;28;20041;-71
2022/07/02 10:35:43;;;;;;;3.70;0.98;;;;;;;;;;5041352;28;20049;-72
2022/07/02 10:38:09;;;;;;;3.05;1.00;;;;;;;;;;5022123;28;20041;-73
2022/07/02 10:40:46;;;;;;;3.42;1.05;;;;;;;;;;5041806;28;20562;-72
2022/07/02 10:43:19;;;;;;;2.95;1.08;;;;;;;;;;5058762;28;20069;-72
2022/07/02 10:45:45;;;;;;;3.92;1.10;;;;;;;;;;5045892;28;20041;-74
2022/07/02 10:48:12;;;;;;;2.25;1.30;;;;;;;;;;5037553;28;20049;-72
2022/07/02 10:50:45;;;;;;;1.95;0.85;;;;;;;;;;5039569;28;20049;-72
2022/07/02 10:53:19;;;;;;;1.45;0.73;;;;;;;;;;5038688;28;20049;-72
2022/07/02 10:55:59;;;;;;;2.47;1.00;;;;;;;;;;5041285;28;20061;-73
2022/07/02 10:58:26;;;;;;;2.35;0.80;;;;;;;;;;5047924;28;20060;-72
2022/07/02 11:00:53;;;;;;;4.45;0.93;;;;;;;;;;5066155;28;20483;-72
2022/07/02 11:03:19;;;;;;;3.30;0.90;;;;;;;;;;5063289;28;20408;-71
2022/07/02 11:05:51;;;;;;;2.05;0.90;;;;;;;;;;5060081;28;20045;-71
2022/07/02 11:08:43;;;;;;;6.05;1.80;;;;;;;;;;5048465;28;20124;-70
2022/07/02 11:11:10;;;;;;;2.72;0.80;;;;;;;;;;5057236;28;20056;-72
2022/07/02 11:13:42;;;;;;;4.22;1.27;;;;;;;;;;5060579;28;20068;-71
2022/07/02 11:16:25;;;;;;;2.03;1.10;;;;;;;;;;5042151;28;20049;-70
2022/07/02 11:18:52;;;;;;;2.38;1.10;;;;;;;;;;5057366;28;20094;-71
2022/07/02 11:21:18;;;;;;;4.00;1.30;;;;;;;;;;5057865;28;20048;-70
2022/07/02 11:23:44;;;;;;;2.10;1.00;;;;;;;;;;5041648;28;20056;-71
2022/07/02 11:26:15;;;;;;;5.45;1.80;;;;;;;;;;5059857;28;20099;-71
2022/07/02 11:28:41;;;;;;;2.92;0.90;;;;;;;;;;5041200;28;20056;-72
2022/07/02 11:31:10;;;;;;;2.05;0.93;;;;;;;;;;5040159;28;20497;-72
2022/07/02 11:33:36;;;;;;;;;;;;;;;;;;5039708;28;20076;-71
2022/07/02 11:36:02;;;;;;;2.08;0.82;;;;;;;;;;5039431;28;19921;-71
2022/07/02 11:38:37;;;;;;;3.05;1.00;;;;;;;;;;5037331;28;20501;-72
2022/07/02 11:41:03;;;;;;;2.38;0.90;;;;;;;;;;5039968;28;20045;-72
2022/07/02 11:43:29;;;;;;;4.18;1.10;;;;;;;;;;5037967;28;20524;-72
2022/07/02 11:45:55;;;;;;;1.85;0.90;;;;;;;;;;5040285;28;20053;-72
2022/07/02 11:48:22;;;;;;;2.70;1.05;;;;;;;;;;5041689;28;20052;-73
2022/07/02 11:50:56;;;;;;;3.15;1.10;;;;;;;;;;5059058;28;20465;-73
2022/07/02 11:53:22;;;;;;;4.70;1.33;;;;;;;;;;5058712;28;20056;-71
2022/07/02 11:55:48;;;;;;;6.38;1.55;;;;;;;;;;5057810;28;20056;-72
2022/07/02 11:58:14;;;;;;;4.03;1.10;;;;;;;;;;5040368;28;20055;-72
2022/07/02 12:00:40;;;;;;;4.63;1.40;;;;;;;;;;5058188;28;20066;-72
2022/07/02 12:03:07;;;;;;;2.92;1.08;;;;;;;;;;5040426;28;20049;-72
2022/07/02 12:05:33;;;;;;;3.47;1.15;;;;;;;;;;5043275;28;20053;-72
2022/07/02 12:07:59;;;;;;;2.42;1.10;;;;;;;;;;5066780;28;20056;-72
2022/07/02 12:10:25;;;;;;;15.75;4.03;;;;;;;;;;5062643;28;20128;-71
2022/07/02 12:12:51;;;;;;;3.58;1.13;;;;;;;;;;5049236;28;20120;-72
2022/07/02 12:15:17;;;;;;;3.45;1.13;;;;;;;;;;5072632;28;20037;-73
2022/07/02 12:17:50;;;;;;;3.03;0.90;;;;;;;;;;5059701;28;20049;-73
2022/07/02 12:20:18;;;;;;;2.63;1.25;;;;;;;;;;5044455;28;20112;-73
2022/07/02 12:22:51;;;;;;;4.80;1.02;;;;;;;;;;5045578;28;20146;-73
2022/07/02 12:25:17;;;;;;;1.95;0.90;;;;;;;;;;5061203;28;20498;-71
2022/07/02 12:27:43;;;;;;;4.38;1.30;;;;;;;;;;5058995;28;20045;-71
2022/07/02 12:30:13;;;;;;;7.72;1.58;;;;;;;;;;5024586;28;20077;-72
2022/07/02 12:32:39;;;;;;;1.83;1.02;;;;;;;;;;5050503;28;20046;-71
2022/07/02 12:35:07;;;;;;;3.30;1.00;;;;;;;;;;5037923;28;20107;-72
2022/07/02 12:37:34;;;;;;;2.63;0.77;;;;;;;;;;5036821;28;20104;-73
2022/07/02 12:40:04;;;;;;;6.27;2.03;;;;;;;;;;5038410;28;20493;-72
2022/07/02 12:42:34;;;;;;;4.90;1.17;;;;;;;;;;5039019;28;20108;-71
2022/07/02 12:45:05;;;;;;;7.38;1.98;;;;;;;;;;5020730;28;20107;-72
2022/07/02 12:47:31;;;;;;;2.72;0.77;;;;;;;;;;5037032;28;20041;-73
2022/07/02 12:49:58;;;;;;;4.65;1.55;;;;;;;;;;5023854;28;20045;-72
2022/07/02 12:52:27;;;;;;;3.13;0.83;;;;;;;;;;5040286;28;20559;-72
2022/07/02 12:54:53;;;;;;;6.75;2.13;;;;;;;;;;5047777;28;20286;-73
2022/07/02 12:57:20;;;;;;;2.38;0.85;;;;;;;;;;5057397;28;20476;-72
2022/07/02 12:59:47;;;;;;;3.13;0.88;;;;;;;;;;5032920;28;20565;-74
2022/07/02 13:02:14;;;;;;;3.55;1.42;;;;;;;;;;5042981;28;20112;-72
2022/07/02 13:04:40;;;;;;;2.47;1.00;;;;;;;;;;5054939;28;20043;-72
2022/07/02 13:07:07;;;;;;;2.85;0.77;;;;;;;;;;5048428;28;20045;-71
2022/07/02 13:09:33;;;;;;;1.85;0.80;;;;;;;;;;5062367;28;20045;-71
2022/07/02 13:12:00;;;;;;;3.22;1.05;;;;;;;;;;5064669;28;20492;-72
2022/07/02 13:14:26;;;;;;;3.28;0.80;;;;;;;;;;5059384;28;20069;-71
2022/07/02 13:16:52;;;;;;;3.25;1.00;;;;;;;;;;5047851;28;20045;-72
2022/07/02 13:19:18;;;;;;;2.42;0.70;;;;;;;;;;5039129;28;20041;-72
2022/07/02 13:21:44;;;;;;;3.58;1.48;;;;;;;;;;5021610;28;20053;-73
2022/07/02 13:24:10;;;;;;;5.22;1.63;;;;;;;;;;5019503;28;20053;-73
2022/07/02 13:26:37;;;;;;;2.58;1.00;;;;;;;;;;5041012;28;20511;-73
2022/07/02 13:29:03;;;;;;;3.97;0.90;;;;;;;;;;5023211;28;20412;-72
2022/07/02 13:31:29;;;;;;;3.55;0.77;;;;;;;;;;5041021;28;20060;-73
2022/07/02 13:33:55;;;;;;;1.98;0.70;;;;;;;;;;5039565;28;20042;-73
2022/07/02 13:36:21;;;;;;;1.95;0.77;;;;;;;;;;5042025;28;20045;-74
2022/07/02 13:38:47;;;;;;;5.53;0.93;;;;;;;;;;5036172;28;20056;-72
2022/07/02 13:41:13;;;;;;;8.80;2.28;;;;;;;;;;5040378;28;20042;-72
2022/07/02 13:43:39;;;;;;;2.75;0.80;;;;;;;;;;5044425;28;20051;-76
2022/07/02 13:46:05;;;;;;;1.80;0.77;;;;;;;;;;5034947;28;20139;-74
2022/07/02 13:48:31;;;;;;;3.65;1.30;;;;;;;;;;5036957;28;20480;-75
2022/07/02 13:50:57;;;;;;;9.82;2.97;;;;;;;;;;5013201;28;20041;-73
2022/07/02 13:53:23;;;;;;;1.52;0.70;;;;;;;;;;5040857;28;20053;-73
2022/07/02 13:55:49;;;;;;;3.58;0.93;;;;;;;;;;5036037;28;20084;-71
2022/07/02 13:58:15;;;;;;;2.72;1.13;;;;;;;;;;5045827;28;20492;-71
2022/07/02 14:00:41;;;;;;;1.52;0.80;;;;;;;;;;5046648;28;20040;-72
2022/07/02 14:03:07;;;;;;;2.80;0.73;;;;;;;;;;5052117;28;20071;-72
2022/07/02 14:05:33;;;;;;;1.58;0.57;;;;;;;;;;5051835;28;20097;-73
2022/07/02 14:07:59;;;;;;;4.40;1.70;;;;;;;;;;5024568;28;20069;-73
2022/07/02 14:10:26;;;;;;;2.28;1.20;;;;;;;;;;5038844;28;20072;-73
2022/07/02 14:12:52;;;;;;;1.95;0.70;;;;;;;;;;5042182;28;20045;-73
2022/07/02 14:15:18;;;;;;;2.33;1.08;;;;;;;;;;5064730;28;20049;-73
2022/07/02 14:17:44;;;;;;;3.38;0.80;;;;;;;;;;5059766;28;20131;-72
2022/07/02 14:20:11;;;;;;;2.63;0.80;;;;;;;;;;5064666;28;20044;-73
2022/07/02 14:22:37;;;;;;;3.17;0.95;;;;;;;;;;5066030;28;20041;-73
2022/07/02 14:25:03;;;;;;;1.63;0.77;;;;;;;;;;5048084;28;20160;-74
2022/07/02 14:27:29;;;;;;;2.33;0.75;;;;;;;;;;5038794;28;20043;-73
2022/07/02 14:29:55;;;;;;;16.48;3.50;;;;;;;;;;5024404;28;20481;-74
2022/07/02 14:32:21;;;;;;;3.35;1.35;;;;;;;;;;5045423;28;20029;-72
2022/07/02 14:34:47;;;;;;;4.15;0.75;;;;;;;;;;5042086;28;20045;-73
2022/07/02 14:37:16;;;;;;;3.58;0.90;;;;;;;;;;5052046;28;20049;-73
2022/07/02 14:39:42;;;;;;;2.05;0.70;;;;;;;;;;5040293;28;20060;-72
2022/07/02 14:42:09;;;;;;;10.23;2.22;;;;;;;;;;5059860;28;20049;-73
2022/07/02 14:44:35;;;;;;;1.77;0.52;;;;;;;;;;5045629;28;20065;-72